Time;durP1;ratioP1;P1;durP2;ratioP2;P2;SDS_P1;SDS_P2;PMS_P1;PMS_P2;Temp;Humidity;BMP_temperature;BMP_pressure;BME280_temperature;BME280_humidity;BME280_pressure;Samples;Min_cycle;Max_cycle;Signal;HPM_P1;HPM_P2
2023/10/11 00:02:14;;;;;;;5.90;5.60;;;;;;;18.61;62.16;101164.00;5033140;28;20560;-68
2023/10/11 00:04:41;;;;;;;10.80;6.13;;;;;;;18.50;62.96;101170.72;5033459;28;20191;-68
2023/10/11 00:07:08;;;;;;;8.30;6.53;;;;;;;18.51;62.44;101168.84;5032886;28;20211;-68
2023/10/11 00:09:35;;;;;;;7.60;6.00;;;;;;;18.45;63.21;101166.91;5033208;28;20571;-68
2023/10/11 00:12:04;;;;;;;5.93;5.50;;;;;;;18.43;62.67;101171.69;5032829;28;20243;-68
2023/10/11 00:14:31;;;;;;;10.23;6.60;;;;;;;18.48;63.31;101169.25;5032709;28;20608;-68
2023/10/11 00:16:57;;;;;;;6.23;5.93;;;;;;;18.41;63.55;101171.03;5032756;28;20262;-68
2023/10/11 00:19:28;;;;;;;9.97;6.23;;;;;;;18.41;63.63;101173.75;5033543;28;20242;-68
2023/10/11 00:21:55;;;;;;;11.10;6.07;;;;;;;18.44;63.24;101176.06;5037069;28;20215;-68
2023/10/11 00:24:23;;;;;;;6.83;6.10;;;;;;;18.45;63.28;101164.22;5036623;28;20651;-68
2023/10/11 00:26:50;;;;;;;16.47;6.50;;;;;;;18.44;63.88;101165.25;5036573;28;20192;-68
2023/10/11 00:29:17;;;;;;;8.13;6.60;;;;;;;18.44;63.50;101163.38;5036546;28;20180;-68
2023/10/11 00:31:45;;;;;;;7.13;6.23;;;;;;;18.48;63.44;101161.13;5036649;28;20295;-68
2023/10/11 00:34:12;;;;;;;6.80;6.13;;;;;;;18.35;64.14;101155.56;5036989;28;20605;-67
2023/10/11 00:36:42;;;;;;;14.80;6.73;;;;;;;18.42;63.56;101157.28;5036299;28;20207;-67
2023/10/11 00:39:10;;;;;;;9.63;6.53;;;;;;;18.43;63.85;101150.00;5035967;28;20184;-67
2023/10/11 00:41:39;;;;;;;22.33;7.20;;;;;;;18.30;64.23;101150.72;5035003;28;20216;-68
2023/10/11 00:44:06;;;;;;;12.63;5.87;;;;;;;18.36;64.20;101146.41;5036834;28;20196;-68
2023/10/11 00:46:44;;;;;;;7.13;6.43;;;;;;;18.35;64.53;101144.72;5036456;28;20188;-68
2023/10/11 00:49:14;;;;;;;6.83;5.97;;;;;;;18.36;64.17;101147.25;5034927;28;20198;-68
2023/10/11 00:51:42;;;;;;;16.53;6.70;;;;;;;18.35;64.05;101144.72;5035352;28;20210;-68
2023/10/11 00:54:13;;;;;;;8.00;6.40;;;;;;;18.34;64.01;101148.47;5034805;28;20191;-68
2023/10/11 00:56:43;;;;;;;6.20;6.00;;;;;;;18.37;64.66;101140.81;5036279;28;20203;-67
2023/10/11 00:59:14;;;;;;;7.40;5.70;;;;;;;18.37;64.48;101138.09;5036322;28;20184;-67
2023/10/11 01:01:45;;;;;;;15.07;6.13;;;;;;;18.33;64.25;101141.38;5036146;28;20204;-68
2023/10/11 01:04:13;;;;;;;11.50;6.17;;;;;;;18.30;65.17;101133.63;5036437;28;20234;-67
2023/10/11 01:06:40;;;;;;;8.97;6.33;;;;;;;18.30;64.51;101134.47;5036117;28;20215;-67
2023/10/11 01:09:26;;;;;;;11.30;6.10;;;;;;;18.32;64.84;101129.72;5036043;28;20188;-67
2023/10/11 01:11:53;;;;;;;11.33;6.87;;;;;;;18.35;64.70;101123.06;5035887;28;20210;-68
2023/10/11 01:14:23;;;;;;;8.23;6.23;;;;;;;18.31;65.75;101127.19;5034439;28;20266;-68
2023/10/11 01:16:51;;;;;;;12.90;6.23;;;;;;;18.33;64.78;101123.25;5035525;28;20672;-68
2023/10/11 01:19:18;;;;;;;6.87;6.27;;;;;;;18.30;64.79;101131.75;5036112;28;20192;-68
2023/10/11 01:21:48;;;;;;;14.17;5.93;;;;;;;18.36;64.93;101120.19;5034250;28;20296;-68
2023/10/11 01:24:16;;;;;;;17.70;6.77;;;;;;;18.41;64.95;101122.31;5036051;28;20605;-67
2023/10/11 01:26:43;;;;;;;20.17;6.43;;;;;;;18.31;65.67;101117.22;5035999;28;20187;-67
2023/10/11 01:29:09;;;;;;;9.13;6.30;;;;;;;18.26;65.54;101117.78;5035438;28;20559;-67
2023/10/11 01:31:38;;;;;;;7.53;6.80;;;;;;;18.23;65.54;101120.88;5034721;28;20314;-68
2023/10/11 01:34:04;;;;;;;10.20;6.57;;;;;;;18.28;65.40;101112.19;5034046;28;20191;-68
2023/10/11 01:36:31;;;;;;;17.50;7.23;;;;;;;18.29;66.10;101116.56;5035408;28;20212;-68
2023/10/11 01:39:08;;;;;;;6.40;5.90;;;;;;;18.27;65.89;101107.78;5035763;28;20188;-67
2023/10/11 01:41:40;;;;;;;12.23;7.07;;;;;;;18.27;65.12;101111.34;5035666;28;20262;-68
2023/10/11 01:44:07;;;;;;;10.63;6.00;;;;;;;18.18;65.96;101104.38;5035452;28;20180;-68
2023/10/11 01:46:39;;;;;;;6.83;6.33;;;;;;;18.16;65.77;101109.13;5035318;28;20222;-68
2023/10/11 01:49:07;;;;;;;16.77;6.57;;;;;;;18.16;65.67;101111.03;5035107;28;20176;-68
2023/10/11 01:51:39;;;;;;;13.10;7.23;;;;;;;18.22;65.77;101100.25;5035453;28;20711;-68
2023/10/11 01:54:12;;;;;;;8.03;7.03;;;;;;;18.19;65.68;101099.81;5033746;28;20200;-68
2023/10/11 01:56:39;;;;;;;8.67;7.03;;;;;;;18.21;65.79;101105.84;5033688;28;20188;-68
2023/10/11 01:59:07;;;;;;;7.23;6.70;;;;;;;18.13;65.83;101095.16;5033609;28;20192;-68
2023/10/11 02:01:40;;;;;;;7.53;5.93;;;;;;;18.11;65.67;101102.63;5033483;28;20581;-68
2023/10/11 02:04:11;;;;;;;9.50;6.53;;;;;;;18.11;66.05;101094.50;5035365;28;20198;-68
2023/10/11 02:06:39;;;;;;;6.63;6.07;;;;;;;18.05;65.97;101100.69;5034981;28;20262;-68
2023/10/11 02:09:06;;;;;;;6.20;5.63;;;;;;;17.99;66.20;101094.16;5034957;28;20188;-67
2023/10/11 02:11:36;;;;;;;6.87;6.30;;;;;;;17.96;66.66;101094.53;5033946;28;20208;-68
2023/10/11 02:14:03;;;;;;;6.90;6.20;;;;;;;17.92;66.33;101095.13;5033257;28;20206;-67
2023/10/11 02:16:32;;;;;;;13.23;6.33;;;;;;;17.84;66.66;101093.38;5033497;28;20216;-67
2023/10/11 02:18:59;;;;;;;7.27;6.57;;;;;;;17.81;66.95;101099.16;5035062;28;20279;-67
2023/10/11 02:21:29;;;;;;;6.57;5.90;;;;;;;17.76;67.18;101097.03;5034643;28;20782;-68
2023/10/11 02:23:57;;;;;;;8.97;6.40;;;;;;;17.76;67.23;101090.78;5034649;28;20203;-68
2023/10/11 02:26:31;;;;;;;8.03;7.17;;;;;;;17.77;67.17;101093.31;5034322;28;20188;-68
2023/10/11 02:29:02;;;;;;;17.20;7.07;;;;;;;17.76;67.04;101090.78;5034618;28;20176;-68
2023/10/11 02:31:33;;;;;;;18.93;6.80;;;;;;;17.74;67.12;101087.41;5034651;28;20207;-68
2023/10/11 02:34:35;;;;;;;8.57;6.60;;;;;;;17.74;67.17;101080.13;5034777;28;20180;-68
2023/10/11 02:36:57;;;;;;;17.07;6.77;;;;;;;17.66;67.40;101082.94;5032557;28;20713;-68
2023/10/11 02:39:34;;;;;;;9.20;6.77;;;;;;;17.64;67.69;101090.44;5033129;28;20203;-68
2023/10/11 02:42:01;;;;;;;8.60;6.37;;;;;;;17.70;67.50;101083.41;5034332;28;20258;-68
2023/10/11 02:44:28;;;;;;;8.87;6.87;;;;;;;17.58;67.88;101085.75;5032633;28;20195;-68
2023/10/11 02:46:58;;;;;;;7.17;6.53;;;;;;;17.57;67.43;101083.19;5034494;28;20671;-68
2023/10/11 02:49:31;;;;;;;6.43;6.00;;;;;;;17.54;68.00;101081.72;5033963;28;20164;-68
2023/10/11 02:52:05;;;;;;;7.67;6.97;;;;;;;17.41;68.21;101086.09;5034113;28;20211;-68
2023/10/11 02:54:39;;;;;;;9.23;6.37;;;;;;;17.42;68.04;101077.81;5032479;28;20187;-68
2023/10/11 02:57:20;;;;;;;8.47;6.63;;;;;;;17.36;68.28;101087.50;5034299;28;20705;-68
2023/10/11 02:59:50;;;;;;;9.47;7.00;;;;;;;17.30;68.92;101085.56;5032522;28;20249;-68
2023/10/11 03:02:20;;;;;;;18.57;6.47;;;;;;;17.35;68.45;101077.72;5032649;28;20218;-68
2023/10/11 03:04:47;;;;;;;11.47;6.40;;;;;;;17.45;68.03;101074.75;5033575;28;20291;-67
2023/10/11 03:07:21;;;;;;;16.07;6.73;;;;;;;17.40;68.16;101073.66;5034119;28;20670;-67
2023/10/11 03:09:48;;;;;;;7.20;6.13;;;;;;;17.38;68.51;101071.13;5032387;28;20606;-67
2023/10/11 03:12:30;;;;;;;13.13;6.37;;;;;;;17.35;68.07;101071.50;5033702;28;20200;-68
2023/10/11 03:15:05;;;;;;;17.63;7.20;;;;;;;17.40;68.40;101070.94;5033677;28;20187;-68
2023/10/11 03:17:31;;;;;;;7.00;5.97;;;;;;;17.29;68.57;101078.47;5033682;28;20191;-68
2023/10/11 03:19:58;;;;;;;12.00;6.63;;;;;;;17.32;68.59;101083.50;5033668;28;20188;-68
2023/10/11 03:22:24;;;;;;;12.70;7.10;;;;;;;17.29;68.37;101078.47;5033326;28;20203;-68
2023/10/11 03:24:54;;;;;;;9.40;7.03;;;;;;;17.25;68.32;101077.19;5033357;28;20245;-68
2023/10/11 03:27:23;;;;;;;14.27;6.73;;;;;;;17.27;68.34;101075.13;5033331;28;20652;-68
2023/10/11 03:29:52;;;;;;;14.40;6.73;;;;;;;17.27;68.14;101072.41;5033324;28;20237;-68
2023/10/11 03:32:24;;;;;;;13.43;6.20;;;;;;;17.26;68.44;101070.75;5033227;28;20208;-68
2023/10/11 03:34:50;;;;;;;7.43;6.70;;;;;;;17.28;68.07;101075.97;5033532;28;20168;-68
2023/10/11 03:37:20;;;;;;;7.37;6.70;;;;;;;17.20;69.03;101071.50;5032224;28;20250;-67
2023/10/11 03:39:56;;;;;;;11.70;6.80;;;;;;;17.26;67.52;101068.06;5033148;28;20242;-67
2023/10/11 03:45:08;;;;;;;11.30;5.97;;;;;;;17.22;68.02;101066.75;5033430;28;20183;-68
2023/10/11 03:47:37;;;;;;;6.60;6.20;;;;;;;17.18;67.96;101060.03;5033079;28;20242;-67
2023/10/11 03:50:06;;;;;;;14.53;6.27;;;;;;;17.20;67.50;101057.97;5033072;28;20198;-67
2023/10/11 03:52:33;;;;;;;7.13;6.53;;;;;;;17.24;67.96;101059.28;5033145;28;20299;-68
2023/10/11 03:55:09;;;;;;;15.70;6.17;;;;;;;17.19;67.50;101058.16;5034246;28;20561;-67
2023/10/11 03:57:42;;;;;;;17.43;6.77;;;;;;;17.17;67.58;101061.06;5037067;28;20242;-67
2023/10/11 04:00:46;;;;;;;9.47;6.03;;;;;;;17.19;67.48;101063.56;5037643;28;20203;-67
2023/10/11 04:03:05;;;;;;;10.23;6.63;;;;;;;17.15;67.63;101060.41;5036812;28;20555;-68
2023/10/11 04:05:35;;;;;;;11.70;6.67;;;;;;;17.24;67.58;101055.75;5037254;28;20188;-68
2023/10/11 04:08:05;;;;;;;9.20;6.80;;;;;;;17.20;67.23;101051.72;5037482;28;20624;-68
2023/10/11 04:10:39;;;;;;;10.87;6.73;;;;;;;17.16;67.57;101053.97;5036947;28;20742;-68
2023/10/11 04:13:09;;;;;;;15.53;6.50;;;;;;;17.10;67.43;101056.59;5036855;28;20218;-68
2023/10/11 04:15:39;;;;;;;14.47;6.43;;;;;;;17.10;67.58;101052.00;5036617;28;20192;-68
2023/10/11 04:18:15;;;;;;;6.77;6.07;;;;;;;17.12;67.84;101054.53;5036915;28;20231;-68
2023/10/11 04:20:51;;;;;;;10.70;6.40;;;;;;;17.15;67.25;101060.41;5036655;28;20172;-68
2023/10/11 04:23:24;;;;;;;6.63;5.97;;;;;;;17.13;67.14;101078.66;5036913;28;20539;-68
2023/10/11 04:25:50;;;;;;;7.53;6.37;;;;;;;17.08;67.26;101067.56;5036641;28;20215;-68
2023/10/11 04:28:17;;;;;;;12.50;6.13;;;;;;;17.11;67.36;101059.09;5036544;28;20554;-68
2023/10/11 04:30:44;;;;;;;6.77;6.20;;;;;;;17.06;67.46;101056.09;5036506;28;20196;-68
2023/10/11 04:33:19;;;;;;;25.53;7.17;;;;;;;17.11;67.08;101052.84;5036628;28;20231;-68
2023/10/11 04:35:55;;;;;;;19.53;6.10;;;;;;;17.11;67.25;101053.69;5036758;28;20546;-68
2023/10/11 04:38:22;;;;;;;7.73;6.97;;;;;;;17.09;66.95;101054.91;5036635;28;20290;-67
2023/10/11 04:40:52;;;;;;;11.97;6.87;;;;;;;17.11;66.99;101048.28;5036275;28;20208;-67
2023/10/11 04:43:25;;;;;;;10.57;6.90;;;;;;;17.06;67.20;101053.41;5036574;28;20190;-67
2023/10/11 04:45:59;;;;;;;13.43;6.43;;;;;;;17.10;66.94;101056.59;5036871;28;20192;-67
2023/10/11 04:48:33;;;;;;;12.37;5.90;;;;;;;17.06;66.93;101053.41;5036500;28;20200;-67
2023/10/11 04:51:08;;;;;;;10.70;6.83;;;;;;;17.06;66.74;101048.00;5036332;28;20621;-68
2023/10/11 04:59:07;;;;;;;11.93;5.77;;;;;;;17.08;66.36;101058.63;5035953;28;20207;-67
2023/10/11 05:04:26;;;;;;;13.97;6.43;;;;;;;17.05;66.76;101067.97;5036440;28;20179;-68
2023/10/11 05:06:54;;;;;;;13.83;6.37;;;;;;;17.04;66.41;101068.97;5034805;28;20553;-67
2023/10/11 05:09:29;;;;;;;17.50;6.23;;;;;;;17.10;66.17;101060.09;5036344;28;20644;-67
2023/10/11 05:12:08;;;;;;;23.13;7.10;;;;;;;17.17;65.56;101063.75;5035870;28;20207;-68
2023/10/11 05:14:40;;;;;;;8.37;6.50;;;;;;;17.15;65.61;101054.16;5035923;28;20690;-67
2023/10/11 05:19:46;;;;;;;8.13;6.00;;;;;;;17.21;64.99;101046.16;5036222;28;20608;-67
2023/10/11 05:32:48;;;;;;;6.43;5.93;;;;;;;17.12;64.93;101028.34;5035342;28;20218;-68
2023/10/11 05:35:24;;;;;;;14.97;6.13;;;;;;;17.23;64.18;101027.88;5035793;28;20168;-67
2023/10/11 05:51:39;;;;;;;18.30;6.80;;;;;;;17.25;63.74;101033.09;5035084;28;20204;-67
2023/10/11 05:54:08;;;;;;;6.50;5.80;;;;;;;17.26;63.63;101037.50;5035013;28;20183;-67
2023/10/11 05:56:38;;;;;;;7.80;6.23;;;;;;;17.29;63.42;101039.81;5035276;28;20202;-67
2023/10/11 05:59:09;;;;;;;6.97;6.13;;;;;;;17.39;62.55;101040.38;5035141;28;20315;-67
2023/10/11 06:01:36;;;;;;;11.37;6.70;;;;;;;17.44;62.39;101029.81;5034805;28;20261;-68
2023/10/11 06:04:08;;;;;;;13.83;6.17;;;;;;;17.43;62.58;101032.72;5035019;28;20192;-68
2023/10/11 06:06:42;;;;;;;7.27;6.57;;;;;;;17.41;62.57;101030.19;5034801;28;20168;-67
2023/10/11 06:09:16;;;;;;;6.80;5.23;;;;;;;17.32;63.13;101021.34;5035258;28;20178;-67
2023/10/11 06:11:50;;;;;;;6.03;5.60;;;;;;;17.43;62.46;101020.03;5034934;28;20207;-67
2023/10/11 06:14:18;;;;;;;5.37;4.87;;;;;;;17.38;62.28;101017.06;5034940;28;20195;-67
2023/10/11 06:16:55;;;;;;;10.03;5.70;;;;;;;17.38;62.44;101022.47;5034794;28;20263;-67
2023/10/11 06:19:28;;;;;;;6.40;5.70;;;;;;;17.44;62.60;101027.09;5034309;28;20196;-67
2023/10/11 06:21:56;;;;;;;10.73;5.93;;;;;;;17.49;62.13;101032.78;5034552;28;20212;-67
2023/10/11 06:24:24;;;;;;;8.53;6.10;;;;;;;17.51;61.99;101025.34;5034397;28;20278;-68
2023/10/11 06:26:55;;;;;;;6.50;5.90;;;;;;;17.45;62.17;101030.66;5034362;28;20192;-67
2023/10/11 06:29:26;;;;;;;10.27;5.53;;;;;;;17.57;61.56;101043.50;5034812;28;20180;-67
2023/10/11 06:31:53;;;;;;;6.03;5.60;;;;;;;17.55;61.95;101036.59;5034203;28;20219;-68
2023/10/11 06:34:35;;;;;;;14.83;5.53;;;;;;;17.49;62.26;101046.31;5035069;28;20187;-68
2023/10/11 06:37:02;;;;;;;14.10;5.70;;;;;;;17.51;61.89;101054.22;5034722;28;20188;-67
2023/10/11 06:42:12;;;;;;;14.07;5.23;;;;;;;17.59;61.44;101055.00;5034532;28;20294;-67
2023/10/11 06:44:47;;;;;;;10.90;5.20;;;;;;;17.56;61.77;101062.63;5034650;28;20635;-67
2023/10/11 06:47:14;;;;;;;13.00;5.63;;;;;;;17.61;62.06;101061.03;5034023;28;20258;-67
2023/10/11 06:49:44;;;;;;;7.20;5.40;;;;;;;17.64;61.39;101062.53;5033990;28;20188;-67
2023/10/11 06:52:11;;;;;;;6.63;5.47;;;;;;;17.68;61.50;101059.28;5033854;28;20208;-67
2023/10/11 06:54:38;;;;;;;7.23;5.53;;;;;;;17.72;61.19;101054.31;5033841;28;20188;-67
2023/10/11 06:57:07;;;;;;;15.53;5.80;;;;;;;17.69;60.88;101062.81;5034086;28;20250;-67
2023/10/11 06:59:33;;;;;;;11.33;5.37;;;;;;;17.70;61.17;101051.78;5033941;28;20679;-67
2023/10/11 07:02:00;;;;;;;7.67;5.20;;;;;;;17.71;61.40;101052.63;5034137;28;20222;-68
2023/10/11 07:04:36;;;;;;;9.30;5.47;;;;;;;17.82;60.84;101057.56;5033951;28;20545;-68
2023/10/11 07:07:07;;;;;;;7.33;5.90;;;;;;;17.85;60.95;101049.06;5033965;28;20187;-67
2023/10/11 07:09:39;;;;;;;6.20;5.63;;;;;;;17.79;61.27;101047.94;5033873;28;20169;-67
2023/10/11 07:14:51;;;;;;;16.23;5.63;;;;;;;17.93;60.68;101062.47;5033515;28;20202;-67
2023/10/11 07:17:21;;;;;;;11.50;5.47;;;;;;;17.99;60.55;101063.59;5033451;28;20683;-67
2023/10/11 07:19:51;;;;;;;10.87;5.77;;;;;;;17.95;61.07;101068.50;5033370;28;20634;-67
2023/10/11 07:22:25;;;;;;;12.27;5.30;;;;;;;17.92;60.87;101058.09;5033601;28;20262;-67
2023/10/11 07:24:56;;;;;;;6.03;5.53;;;;;;;18.02;60.91;101057.78;5033694;28;20196;-68
2023/10/11 07:27:37;;;;;;;18.27;6.70;;;;;;;18.09;60.18;101058.69;5033933;28;20230;-68
2023/10/11 07:30:16;;;;;;;18.67;5.67;;;;;;;18.17;60.63;101058.53;5033215;28;20172;-67
2023/10/11 07:32:43;;;;;;;5.13;4.70;;;;;;;18.18;59.55;101057.53;5033493;28;20230;-68
2023/10/11 07:35:19;;;;;;;7.97;6.07;;;;;;;18.27;59.70;101050.97;5033281;28;20195;-67
2023/10/11 07:37:45;;;;;;;19.97;5.10;;;;;;;18.20;60.61;101048.16;5033459;28;20168;-67
2023/10/11 07:40:20;;;;;;;17.87;5.60;;;;;;;18.26;60.01;101057.41;5033736;28;20648;-67
2023/10/11 07:42:47;;;;;;;12.50;5.20;;;;;;;18.33;59.96;101049.34;5033130;28;20699;-68
2023/10/11 07:45:13;;;;;;;9.30;5.07;;;;;;;18.31;60.07;101056.81;5033394;28;20196;-68
2023/10/11 07:47:48;;;;;;;6.33;5.63;;;;;;;18.34;60.05;101049.13;5033636;28;20245;-68
2023/10/11 07:50:14;;;;;;;5.53;5.13;;;;;;;18.42;58.99;101048.16;5033415;28;20214;-67
2023/10/11 07:52:42;;;;;;;17.17;5.47;;;;;;;18.39;59.94;101051.25;5033051;28;20261;-68
2023/10/11 07:55:12;;;;;;;8.27;4.37;;;;;;;18.48;59.12;101055.53;5033586;28;20548;-68
2023/10/11 07:57:47;;;;;;;10.60;5.03;;;;;;;18.50;59.07;101058.88;5033494;28;20176;-67
2023/10/11 08:00:17;;;;;;;11.43;4.47;;;;;;;18.50;59.18;101053.47;5033301;28;20583;-67
2023/10/11 08:03:02;;;;;;;5.33;5.00;;;;;;;18.58;59.57;101056.91;5032886;28;20221;-68
2023/10/11 08:05:33;;;;;;;5.70;5.40;;;;;;;18.62;58.96;101057.34;5033231;28;20183;-67
2023/10/11 08:08:00;;;;;;;19.77;5.77;;;;;;;18.64;59.72;101058.81;5033263;28;20594;-67
2023/10/11 08:10:29;;;;;;;5.07;4.70;;;;;;;18.61;59.08;101058.38;5032883;28;20660;-67
2023/10/11 08:12:59;;;;;;;9.17;4.97;;;;;;;18.73;58.74;101051.38;5032815;28;20216;-67
2023/10/11 08:15:25;;;;;;;5.80;5.13;;;;;;;18.79;59.19;101061.44;5032842;28;20242;-68
2023/10/11 08:17:52;;;;;;;7.93;5.47;;;;;;;18.77;59.07;101062.66;5032753;28;20191;-67
2023/10/11 08:20:19;;;;;;;11.27;4.73;;;;;;;18.82;58.83;101074.59;5032861;28;20184;-67
2023/10/11 08:22:47;;;;;;;9.87;5.13;;;;;;;18.90;58.94;101074.44;5032663;28;20207;-67
2023/10/11 08:25:14;;;;;;;17.90;5.50;;;;;;;18.91;58.29;101072.56;5032996;28;20199;-67
2023/10/11 08:27:41;;;;;;;16.13;6.33;;;;;;;18.95;58.45;101071.97;5032785;28;20192;-66
2023/10/11 08:30:09;;;;;;;27.57;6.70;;;;;;;19.01;58.53;101073.06;5033239;28;20660;-67
2023/10/11 08:32:38;;;;;;;6.33;5.50;;;;;;;18.94;59.75;101072.16;5032759;28;20214;-67
2023/10/11 08:35:10;;;;;;;11.13;5.37;;;;;;;19.00;58.85;101074.09;5032975;28;20192;-67
2023/10/11 08:37:37;;;;;;;17.47;5.33;;;;;;;18.93;58.66;101068.63;5032686;28;20176;-67
2023/10/11 08:40:20;;;;;;;8.33;5.40;;;;;;;18.92;58.27;101075.09;5031286;28;20310;-67
2023/10/11 08:42:48;;;;;;;14.13;5.73;;;;;;;18.92;59.19;101066.97;5036824;28;20262;-67
2023/10/11 08:45:33;;;;;;;11.10;5.27;;;;;;;18.97;59.06;101069.88;5036514;28;20659;-67
2023/10/11 08:48:06;;;;;;;13.87;6.37;;;;;;;18.96;58.45;101068.25;5036313;28;20172;-67
2023/10/11 08:50:34;;;;;;;12.70;4.63;;;;;;;18.99;59.68;101072.41;5035206;28;20194;-67
2023/10/11 08:53:08;;;;;;;16.00;5.73;;;;;;;19.03;59.92;101068.28;5036660;28;20766;-67
2023/10/11 08:55:41;;;;;;;5.57;5.03;;;;;;;19.03;59.66;101065.56;5036357;28;20180;-67
2023/10/11 08:58:12;;;;;;;7.20;5.53;;;;;;;19.10;58.58;101069.97;5036569;28;20206;-67
2023/10/11 09:00:43;;;;;;;9.20;5.07;;;;;;;19.07;60.08;101070.38;5036035;28;20294;-66
2023/10/11 09:03:18;;;;;;;21.50;5.93;;;;;;;19.20;58.95;101063.38;5036340;28;20587;-66
2023/10/11 09:05:47;;;;;;;14.20;5.67;;;;;;;19.21;60.18;101078.59;5036489;28;20172;-66
2023/10/11 09:08:27;;;;;;;16.97;6.20;;;;;;;19.31;59.75;101079.91;5035888;28;20613;-67
2023/10/11 09:11:30;;;;;;;11.90;6.30;;;;;;;19.31;59.92;101073.69;5036043;28;20507;-68
2023/10/11 09:14:22;;;;;;;13.00;6.07;;;;;;;19.30;58.93;101072.00;5036168;28;20667;-67
2023/10/11 09:16:57;;;;;;;14.20;6.23;;;;;;;19.31;58.52;101071.78;5036053;28;20172;-67
2023/10/11 09:19:24;;;;;;;10.07;6.10;;;;;;;19.41;59.57;101069.53;5035905;28;20206;-67
2023/10/11 09:22:04;;;;;;;9.73;5.53;;;;;;;19.48;59.21;101069.59;5035576;28;20270;-67
2023/10/11 09:24:38;;;;;;;6.43;5.83;;;;;;;19.50;59.13;101067.53;5035832;28;20178;-66
2023/10/11 09:29:46;;;;;;;34.50;6.93;;;;;;;19.67;59.24;101063.44;5035795;28;20234;-67
2023/10/11 09:32:19;;;;;;;22.13;6.30;;;;;;;19.68;58.01;101065.13;5035593;28;20603;-67
2023/10/11 09:34:51;;;;;;;21.37;6.00;;;;;;;19.72;58.42;101058.25;5035439;28;20175;-67
2023/10/11 09:37:20;;;;;;;13.63;5.80;;;;;;;19.75;58.64;101057.00;5035695;28;20580;-67
2023/10/11 09:39:51;;;;;;;8.07;5.87;;;;;;;19.71;57.54;101053.84;5035214;28;20204;-67
2023/10/11 09:42:21;;;;;;;17.77;5.90;;;;;;;19.89;57.88;101051.41;5035664;28;20208;-67
2023/10/11 09:44:57;;;;;;;14.83;6.47;;;;;;;19.93;58.68;101052.69;5036069;28;20184;-67
2023/10/11 09:47:31;;;;;;;20.63;6.00;;;;;;;20.10;58.22;101052.28;5035509;28;20200;-67
2023/10/11 09:50:00;;;;;;;30.10;5.60;;;;;;;20.13;57.10;101055.44;5035638;28;20616;-67
2023/10/11 09:52:28;;;;;;;15.13;5.77;;;;;;;20.19;58.38;101062.75;5034165;28;20212;-67
2023/10/11 09:54:56;;;;;;;14.37;5.63;;;;;;;20.27;57.73;101064.44;5035083;28;20192;-67
2023/10/11 09:57:41;;;;;;;22.50;5.77;;;;;;;20.31;56.37;101066.56;5035289;28;20188;-67
2023/10/11 10:00:35;;;;;;;11.77;5.73;;;;;;;20.40;56.34;101069.94;5034875;28;20196;-67
2023/10/11 10:03:04;;;;;;;5.70;5.23;;;;;;;20.51;56.52;101072.84;5034841;28;20216;-67
2023/10/11 10:06:18;;;;;;;12.70;4.60;;;;;;;20.62;57.67;101071.41;5035661;28;20176;-67
2023/10/11 10:08:50;;;;;;;19.07;5.73;;;;;;;20.71;58.10;101072.84;5035006;28;20616;-67
2023/10/11 10:11:19;;;;;;;10.43;5.57;;;;;;;20.74;55.99;101075.16;5033320;28;20220;-67
2023/10/11 10:13:59;;;;;;;15.63;5.70;;;;;;;20.66;56.60;101085.41;5034430;28;20246;-67
2023/10/11 10:17:03;;;;;;;14.50;5.73;;;;;;;20.52;55.26;101084.56;5034826;28;20184;-67
2023/10/11 10:19:39;;;;;;;13.73;5.37;;;;;;;20.40;54.59;101078.06;5034463;28;20215;-67
2023/10/11 10:22:16;;;;;;;24.03;6.03;;;;;;;20.38;56.03;101083.69;5034912;28;20215;-67
2023/10/11 10:24:44;;;;;;;10.97;5.10;;;;;;;20.44;55.29;101087.47;5034445;28;20207;-67
2023/10/11 10:27:23;;;;;;;23.67;5.57;;;;;;;20.51;54.56;101085.59;5034888;28;20199;-66
2023/10/11 10:30:05;;;;;;;16.60;6.10;;;;;;;20.58;56.05;101075.56;5034328;28;20188;-67
2023/10/11 10:32:33;;;;;;;13.60;5.83;;;;;;;20.68;55.23;101073.28;5034383;28;20581;-67
2023/10/11 10:35:18;;;;;;;9.73;5.77;;;;;;;20.66;54.95;101064.50;5034448;28;20217;-67
2023/10/11 10:37:47;;;;;;;13.37;5.60;;;;;;;20.77;56.39;101071.19;5035038;28;20266;-67
2023/10/11 10:40:18;;;;;;;11.43;5.30;;;;;;;20.83;54.09;101071.19;5034620;28;20215;-67
2023/10/11 10:43:20;;;;;;;15.50;5.73;;;;;;;20.90;53.47;101063.84;5034101;28;20226;-67
2023/10/11 10:45:48;;;;;;;22.10;6.20;;;;;;;20.98;54.29;101065.50;5034345;28;20176;-67
2023/10/11 10:48:24;;;;;;;18.17;7.10;;;;;;;21.00;53.10;101058.00;5034338;28;20199;-67
2023/10/11 10:50:54;;;;;;;17.90;5.03;;;;;;;20.98;55.15;101052.75;5034318;28;20176;-68
2023/10/11 10:53:24;;;;;;;11.47;5.90;;;;;;;21.06;54.43;101054.41;5034205;28;20184;-67
2023/10/11 10:55:51;;;;;;;22.17;6.93;;;;;;;21.05;54.15;101057.38;5034063;28;20191;-67
2023/10/11 10:58:19;;;;;;;6.47;5.97;;;;;;;21.11;53.54;101053.78;5033960;28;20324;-67
2023/10/11 11:00:59;;;;;;;23.63;6.03;;;;;;;21.09;53.87;101061.31;5033539;28;20215;-67
2023/10/11 11:03:32;;;;;;;27.03;6.10;;;;;;;21.10;54.41;101073.84;5033657;28;20180;-67
2023/10/11 11:06:02;;;;;;;20.93;6.70;;;;;;;21.17;53.65;101077.44;5033877;28;20515;-67
2023/10/11 11:08:37;;;;;;;18.43;5.50;;;;;;;21.20;54.19;101075.13;5034096;28;20198;-67
2023/10/11 11:11:25;;;;;;;22.27;5.90;;;;;;;21.28;53.96;101066.75;5033998;28;20180;-67
2023/10/11 11:13:54;;;;;;;21.27;6.10;;;;;;;21.32;54.42;101045.38;5033908;28;20258;-67
2023/10/11 11:16:26;;;;;;;9.17;5.37;;;;;;;21.39;54.69;101052.47;5034081;28;20188;-67
2023/10/11 11:18:53;;;;;;;25.53;6.57;;;;;;;21.47;53.29;101050.59;5033423;28;20254;-67
2023/10/11 11:21:25;;;;;;;13.53;6.00;;;;;;;21.45;53.78;101039.91;5033417;28;20207;-67
2023/10/11 11:23:52;;;;;;;11.43;5.97;;;;;;;21.53;55.16;101053.25;5034205;28;20182;-67
2023/10/11 11:26:23;;;;;;;10.07;6.23;;;;;;;21.55;54.86;101040.28;5033398;28;20246;-67
2023/10/11 11:29:16;;;;;;;16.43;6.43;;;;;;;21.75;54.09;101046.47;5033610;28;20171;-67
2023/10/11 11:31:51;;;;;;;19.20;5.43;;;;;;;21.75;54.80;101046.47;5033456;28;20215;-67
2023/10/11 11:34:27;;;;;;;30.23;5.93;;;;;;;21.72;55.79;101051.53;5033507;28;20263;-67
2023/10/11 11:36:56;;;;;;;13.93;6.23;;;;;;;21.71;55.61;101047.13;5033540;28;20180;-67
2023/10/11 11:39:50;;;;;;;21.43;7.03;;;;;;;21.77;57.34;101040.78;5033444;28;20253;-67
2023/10/11 11:42:19;;;;;;;21.43;5.00;;;;;;;21.77;56.36;101040.78;5033386;28;20265;-67
2023/10/11 11:44:46;;;;;;;18.90;5.70;;;;;;;21.82;56.70;101035.53;5033419;28;20210;-67
2023/10/11 11:47:21;;;;;;;19.10;6.20;;;;;;;21.86;56.17;101048.50;5033120;28;20180;-67
2023/10/11 11:49:51;;;;;;;17.27;6.20;;;;;;;21.85;55.98;101046.03;5033699;28;20211;-67
2023/10/11 11:52:17;;;;;;;16.80;6.17;;;;;;;21.88;56.37;101037.41;5033313;28;20232;-67
2023/10/11 11:54:44;;;;;;;6.83;5.87;;;;;;;21.91;56.43;101031.50;5033055;28;20577;-66
2023/10/11 11:57:11;;;;;;;33.90;5.90;;;;;;;22.05;55.95;101038.59;5033288;28;20645;-67
2023/10/11 11:59:40;;;;;;;19.07;5.30;;;;;;;22.06;56.41;101039.44;5033454;28;20328;-67
2023/10/11 12:02:16;;;;;;;20.73;5.70;;;;;;;22.05;56.65;101035.03;5032937;28;20208;-67
2023/10/11 12:04:47;;;;;;;21.60;6.43;;;;;;;22.01;56.24;101029.19;5033210;28;20579;-67
2023/10/11 12:07:13;;;;;;;21.10;5.80;;;;;;;22.06;56.85;101025.81;5034133;28;20180;-67
2023/10/11 12:09:40;;;;;;;9.97;5.33;;;;;;;22.18;58.96;101021.34;5032961;28;20188;-67
2023/10/11 12:12:26;;;;;;;16.23;6.07;;;;;;;22.17;57.12;101030.56;5033070;28;20703;-67
2023/10/11 12:14:53;;;;;;;16.63;5.40;;;;;;;22.14;56.73;101028.28;5032961;28;20222;-67
2023/10/11 12:17:20;;;;;;;22.80;6.40;;;;;;;22.23;57.47;101022.34;5036742;28;20188;-67
2023/10/11 12:19:53;;;;;;;16.40;6.30;;;;;;;22.17;56.91;101016.94;5037057;28;20207;-67
2023/10/11 12:22:22;;;;;;;16.07;6.60;;;;;;;22.19;57.28;101004.75;5036891;28;20265;-67
2023/10/11 12:24:49;;;;;;;17.27;6.00;;;;;;;22.21;56.92;101007.25;5036678;28;20184;-67
2023/10/11 12:27:16;;;;;;;15.07;5.17;;;;;;;22.22;56.93;101004.34;5036623;28;20196;-67